sensor_id;sensor_type;location;lat;lon;timestamp;P1;durP1;ratioP1;P2;durP2;ratioP2
22066;SDS011;72821;49.814;19.034;2023-09-18T00:02:42;6.28;;;4.35;;
22066;SDS011;72821;49.814;19.034;2023-09-18T00:07:45;6.20;;;3.97;;
22066;SDS011;72821;49.814;19.034;2023-09-18T00:12:47;6.47;;;4.07;;
22066;SDS011;72821;49.814;19.034;2023-09-18T00:17:49;6.03;;;4.18;;
22066;SDS011;72821;49.814;19.034;2023-09-18T00:22:54;5.82;;;3.58;;
22066;SDS011;72821;49.814;19.034;2023-09-18T00:27:57;5.25;;;3.63;;
22066;SDS011;72821;49.814;19.034;2023-09-18T00:33:00;6.18;;;3.50;;
22066;SDS011;72821;49.814;19.034;2023-09-18T00:38:02;4.75;;;3.55;;
22066;SDS011;72821;49.814;19.034;2023-09-18T00:43:05;5.07;;;3.63;;
22066;SDS011;72821;49.814;19.034;2023-09-18T00:48:07;5.25;;;3.97;;
22066;SDS011;72821;49.814;19.034;2023-09-18T00:53:11;5.00;;;3.60;;
22066;SDS011;72821;49.814;19.034;2023-09-18T00:58:16;6.35;;;4.10;;
22066;SDS011;72821;49.814;19.034;2023-09-18T01:03:21;5.68;;;4.18;;
22066;SDS011;72821;49.814;19.034;2023-09-18T01:08:24;7.95;;;4.65;;
22066;SDS011;72821;49.814;19.034;2023-09-18T01:13:28;6.72;;;4.57;;
22066;SDS011;72821;49.814;19.034;2023-09-18T01:18:37;7.15;;;4.70;;
22066;SDS011;72821;49.814;19.034;2023-09-18T01:23:39;5.70;;;4.50;;
22066;SDS011;72821;49.814;19.034;2023-09-18T01:28:42;5.82;;;4.30;;
22066;SDS011;72821;49.814;19.034;2023-09-18T01:33:44;6.38;;;4.45;;
22066;SDS011;72821;49.814;19.034;2023-09-18T01:38:49;6.68;;;5.22;;
22066;SDS011;72821;49.814;19.034;2023-09-18T01:43:52;6.85;;;5.22;;
22066;SDS011;72821;49.814;19.034;2023-09-18T01:48:58;6.60;;;5.47;;
22066;SDS011;72821;49.814;19.034;2023-09-18T01:54:00;7.15;;;5.85;;
22066;SDS011;72821;49.814;19.034;2023-09-18T01:59:03;7.07;;;5.30;;
22066;SDS011;72821;49.814;19.034;2023-09-18T02:04:06;7.65;;;5.22;;
22066;SDS011;72821;49.814;19.034;2023-09-18T02:09:28;7.13;;;5.45;;
22066;SDS011;72821;49.814;19.034;2023-09-18T02:14:31;8.10;;;5.70;;
22066;SDS011;72821;49.814;19.034;2023-09-18T02:19:35;6.90;;;5.50;;
22066;SDS011;72821;49.814;19.034;2023-09-18T02:24:37;8.93;;;5.60;;
22066;SDS011;72821;49.814;19.034;2023-09-18T02:29:40;8.38;;;5.93;;
22066;SDS011;72821;49.814;19.034;2023-09-18T02:34:42;7.95;;;5.97;;
22066;SDS011;72821;49.814;19.034;2023-09-18T02:39:44;7.90;;;6.40;;
22066;SDS011;72821;49.814;19.034;2023-09-18T02:44:46;7.80;;;6.22;;
22066;SDS011;72821;49.814;19.034;2023-09-18T02:49:49;7.57;;;6.75;;
22066;SDS011;72821;49.814;19.034;2023-09-18T02:54:51;8.18;;;6.55;;
22066;SDS011;72821;49.814;19.034;2023-09-18T02:59:53;8.35;;;6.57;;
22066;SDS011;72821;49.814;19.034;2023-09-18T03:04:55;8.35;;;7.18;;
22066;SDS011;72821;49.814;19.034;2023-09-18T03:09:58;8.38;;;6.57;;
22066;SDS011;72821;49.814;19.034;2023-09-18T03:15:00;9.65;;;7.03;;
22066;SDS011;72821;49.814;19.034;2023-09-18T03:20:03;8.75;;;6.60;;
22066;SDS011;72821;49.814;19.034;2023-09-18T03:25:05;11.57;;;7.43;;
22066;SDS011;72821;49.814;19.034;2023-09-18T03:30:08;11.57;;;7.35;;
22066;SDS011;72821;49.814;19.034;2023-09-18T03:35:14;9.15;;;7.22;;
22066;SDS011;72821;49.814;19.034;2023-09-18T03:40:20;9.60;;;7.18;;
22066;SDS011;72821;49.814;19.034;2023-09-18T03:45:23;9.73;;;7.60;;
22066;SDS011;72821;49.814;19.034;2023-09-18T03:50:25;10.18;;;7.80;;
22066;SDS011;72821;49.814;19.034;2023-09-18T03:55:28;10.60;;;7.97;;
22066;SDS011;72821;49.814;19.034;2023-09-18T04:00:31;10.18;;;7.85;;
22066;SDS011;72821;49.814;19.034;2023-09-18T04:05:34;9.25;;;7.10;;
22066;SDS011;72821;49.814;19.034;2023-09-18T04:10:36;15.10;;;8.02;;
22066;SDS011;72821;49.814;19.034;2023-09-18T04:15:39;10.90;;;8.18;;
22066;SDS011;72821;49.814;19.034;2023-09-18T04:20:41;9.63;;;7.70;;
22066;SDS011;72821;49.814;19.034;2023-09-18T04:25:43;11.10;;;8.77;;
22066;SDS011;72821;49.814;19.034;2023-09-18T04:30:47;10.43;;;7.75;;
22066;SDS011;72821;49.814;19.034;2023-09-18T04:35:49;10.48;;;8.65;;
22066;SDS011;72821;49.814;19.034;2023-09-18T04:41:00;9.90;;;8.02;;
22066;SDS011;72821;49.814;19.034;2023-09-18T04:46:03;9.88;;;8.35;;
22066;SDS011;72821;49.814;19.034;2023-09-18T04:51:08;9.45;;;7.65;;
22066;SDS011;72821;49.814;19.034;2023-09-18T04:56:10;11.15;;;8.23;;
22066;SDS011;72821;49.814;19.034;2023-09-18T05:01:13;10.57;;;8.55;;
22066;SDS011;72821;49.814;19.034;2023-09-18T05:06:15;9.63;;;7.65;;
22066;SDS011;72821;49.814;19.034;2023-09-18T05:11:18;10.07;;;8.20;;
22066;SDS011;72821;49.814;19.034;2023-09-18T05:16:20;12.57;;;8.75;;
22066;SDS011;72821;49.814;19.034;2023-09-18T05:21:23;12.85;;;8.98;;
22066;SDS011;72821;49.814;19.034;2023-09-18T05:26:26;14.75;;;9.20;;
22066;SDS011;72821;49.814;19.034;2023-09-18T05:31:30;11.32;;;8.00;;
22066;SDS011;72821;49.814;19.034;2023-09-18T05:36:32;11.13;;;7.97;;
22066;SDS011;72821;49.814;19.034;2023-09-18T05:41:35;9.98;;;7.80;;
22066;SDS011;72821;49.814;19.034;2023-09-18T05:46:37;12.40;;;8.15;;
22066;SDS011;72821;49.814;19.034;2023-09-18T05:51:40;10.35;;;7.85;;
22066;SDS011;72821;49.814;19.034;2023-09-18T05:56:42;11.52;;;7.72;;
22066;SDS011;72821;49.814;19.034;2023-09-18T06:01:44;10.82;;;8.20;;
22066;SDS011;72821;49.814;19.034;2023-09-18T06:06:47;11.20;;;8.50;;
22066;SDS011;72821;49.814;19.034;2023-09-18T06:11:49;10.15;;;8.18;;
22066;SDS011;72821;49.814;19.034;2023-09-18T06:16:51;10.80;;;8.40;;
22066;SDS011;72821;49.814;19.034;2023-09-18T06:21:54;9.60;;;7.88;;
22066;SDS011;72821;49.814;19.034;2023-09-18T06:26:56;13.35;;;8.25;;
22066;SDS011;72821;49.814;19.034;2023-09-18T06:31:58;10.23;;;8.38;;
22066;SDS011;72821;49.814;19.034;2023-09-18T06:37:01;9.95;;;8.45;;
22066;SDS011;72821;49.814;19.034;2023-09-18T06:42:05;10.70;;;8.00;;
22066;SDS011;72821;49.814;19.034;2023-09-18T06:47:07;11.68;;;8.88;;
22066;SDS011;72821;49.814;19.034;2023-09-18T06:52:09;11.43;;;9.00;;
22066;SDS011;72821;49.814;19.034;2023-09-18T06:57:12;9.93;;;8.52;;
22066;SDS011;72821;49.814;19.034;2023-09-18T07:02:14;13.35;;;9.73;;
22066;SDS011;72821;49.814;19.034;2023-09-18T07:07:18;11.63;;;8.73;;
22066;SDS011;72821;49.814;19.034;2023-09-18T07:12:27;11.55;;;8.63;;
22066;SDS011;72821;49.814;19.034;2023-09-18T07:17:29;11.55;;;9.20;;
22066;SDS011;72821;49.814;19.034;2023-09-18T07:22:32;10.80;;;8.88;;
22066;SDS011;72821;49.814;19.034;2023-09-18T07:27:34;11.25;;;9.65;;
22066;SDS011;72821;49.814;19.034;2023-09-18T07:32:39;11.13;;;9.18;;
22066;SDS011;72821;49.814;19.034;2023-09-18T07:37:42;10.52;;;8.57;;
22066;SDS011;72821;49.814;19.034;2023-09-18T07:42:46;9.65;;;8.63;;
22066;SDS011;72821;49.814;19.034;2023-09-18T07:47:49;12.32;;;8.95;;
22066;SDS011;72821;49.814;19.034;2023-09-18T07:52:51;10.15;;;8.68;;
22066;SDS011;72821;49.814;19.034;2023-09-18T07:57:53;10.77;;;9.18;;
22066;SDS011;72821;49.814;19.034;2023-09-18T08:02:56;11.90;;;9.35;;
22066;SDS011;72821;49.814;19.034;2023-09-18T08:08:03;11.45;;;8.63;;
22066;SDS011;72821;49.814;19.034;2023-09-18T08:13:07;11.18;;;9.73;;
22066;SDS011;72821;49.814;19.034;2023-09-18T08:18:09;10.63;;;8.82;;
22066;SDS011;72821;49.814;19.034;2023-09-18T08:23:12;11.05;;;9.30;;
22066;SDS011;72821;49.814;19.034;2023-09-18T08:28:15;10.60;;;9.50;;
22066;SDS011;72821;49.814;19.034;2023-09-18T08:33:17;10.90;;;9.35;;
22066;SDS011;72821;49.814;19.034;2023-09-18T08:38:20;9.80;;;8.80;;
22066;SDS011;72821;49.814;19.034;2023-09-18T08:43:22;11.00;;;8.63;;
22066;SDS011;72821;49.814;19.034;2023-09-18T08:48:25;10.48;;;9.27;;
22066;SDS011;72821;49.814;19.034;2023-09-18T08:53:31;10.15;;;8.68;;
22066;SDS011;72821;49.814;19.034;2023-09-18T08:58:35;9.50;;;7.97;;
22066;SDS011;72821;49.814;19.034;2023-09-18T09:03:41;10.88;;;8.38;;
22066;SDS011;72821;49.814;19.034;2023-09-18T09:08:44;11.13;;;8.75;;
22066;SDS011;72821;49.814;19.034;2023-09-18T09:13:47;9.63;;;7.65;;
22066;SDS011;72821;49.814;19.034;2023-09-18T09:18:49;7.68;;;6.88;;
22066;SDS011;72821;49.814;19.034;2023-09-18T09:23:54;8.80;;;7.45;;
22066;SDS011;72821;49.814;19.034;2023-09-18T09:28:57;9.15;;;6.80;;
22066;SDS011;72821;49.814;19.034;2023-09-18T09:34:24;8.52;;;6.90;;
22066;SDS011;72821;49.814;19.034;2023-09-18T09:44:32;8.52;;;6.75;;
22066;SDS011;72821;49.814;19.034;2023-09-18T09:49:44;8.02;;;7.07;;
22066;SDS011;72821;49.814;19.034;2023-09-18T09:54:48;8.75;;;6.70;;
22066;SDS011;72821;49.814;19.034;2023-09-18T09:59:50;7.20;;;6.50;;
22066;SDS011;72821;49.814;19.034;2023-09-18T10:04:56;8.85;;;5.90;;
22066;SDS011;72821;49.814;19.034;2023-09-18T10:09:58;6.88;;;6.18;;
22066;SDS011;72821;49.814;19.034;2023-09-18T10:15:01;9.68;;;6.40;;
22066;SDS011;72821;49.814;19.034;2023-09-18T10:25:12;7.72;;;5.97;;
22066;SDS011;72821;49.814;19.034;2023-09-18T10:30:20;6.75;;;6.00;;
22066;SDS011;72821;49.814;19.034;2023-09-18T10:35:25;7.55;;;5.80;;
22066;SDS011;72821;49.814;19.034;2023-09-18T10:40:28;7.80;;;6.25;;
22066;SDS011;72821;49.814;19.034;2023-09-18T10:45:33;8.38;;;7.57;;
22066;SDS011;72821;49.814;19.034;2023-09-18T10:50:35;7.03;;;5.88;;
22066;SDS011;72821;49.814;19.034;2023-09-18T10:55:38;7.35;;;6.15;;
22066;SDS011;72821;49.814;19.034;2023-09-18T11:00:43;6.60;;;5.90;;
22066;SDS011;72821;49.814;19.034;2023-09-18T11:05:46;7.78;;;5.68;;
22066;SDS011;72821;49.814;19.034;2023-09-18T11:11:01;6.72;;;6.03;;
22066;SDS011;72821;49.814;19.034;2023-09-18T11:16:16;7.00;;;6.10;;
22066;SDS011;72821;49.814;19.034;2023-09-18T11:21:27;8.60;;;6.07;;
22066;SDS011;72821;49.814;19.034;2023-09-18T11:26:35;6.38;;;5.50;;
22066;SDS011;72821;49.814;19.034;2023-09-18T11:31:45;7.60;;;6.20;;
22066;SDS011;72821;49.814;19.034;2023-09-18T11:36:50;7.93;;;5.88;;
22066;SDS011;72821;49.814;19.034;2023-09-18T11:41:57;5.95;;;4.95;;
22066;SDS011;72821;49.814;19.034;2023-09-18T11:47:10;6.70;;;5.40;;
22066;SDS011;72821;49.814;19.034;2023-09-18T11:52:31;5.82;;;4.88;;
22066;SDS011;72821;49.814;19.034;2023-09-18T11:57:36;6.65;;;5.20;;
22066;SDS011;72821;49.814;19.034;2023-09-18T12:02:39;6.35;;;5.55;;
22066;SDS011;72821;49.814;19.034;2023-09-18T12:07:47;7.43;;;5.60;;
22066;SDS011;72821;49.814;19.034;2023-09-18T12:12:51;6.53;;;5.07;;
22066;SDS011;72821;49.814;19.034;2023-09-18T12:17:54;6.40;;;5.35;;
22066;SDS011;72821;49.814;19.034;2023-09-18T12:22:57;6.75;;;5.15;;
22066;SDS011;72821;49.814;19.034;2023-09-18T12:27:59;7.38;;;4.95;;
22066;SDS011;72821;49.814;19.034;2023-09-18T12:33:03;5.93;;;5.05;;
22066;SDS011;72821;49.814;19.034;2023-09-18T12:38:16;7.20;;;5.38;;
22066;SDS011;72821;49.814;19.034;2023-09-18T12:43:24;5.90;;;4.70;;
22066;SDS011;72821;49.814;19.034;2023-09-18T12:48:36;6.43;;;5.10;;
22066;SDS011;72821;49.814;19.034;2023-09-18T12:53:47;5.47;;;4.88;;
22066;SDS011;72821;49.814;19.034;2023-09-18T12:58:49;7.05;;;4.97;;
22066;SDS011;72821;49.814;19.034;2023-09-18T13:04:11;6.93;;;5.30;;
22066;SDS011;72821;49.814;19.034;2023-09-18T13:09:18;5.43;;;4.43;;
22066;SDS011;72821;49.814;19.034;2023-09-18T13:14:24;5.13;;;4.50;;
22066;SDS011;72821;49.814;19.034;2023-09-18T13:19:27;5.70;;;4.78;;
22066;SDS011;72821;49.814;19.034;2023-09-18T13:24:30;7.47;;;5.50;;
22066;SDS011;72821;49.814;19.034;2023-09-18T13:29:33;6.00;;;4.57;;
22066;SDS011;72821;49.814;19.034;2023-09-18T13:34:35;5.85;;;4.55;;
22066;SDS011;72821;49.814;19.034;2023-09-18T13:39:39;6.18;;;4.53;;
22066;SDS011;72821;49.814;19.034;2023-09-18T13:44:41;5.65;;;4.50;;
22066;SDS011;72821;49.814;19.034;2023-09-18T13:49:45;5.68;;;4.72;;
22066;SDS011;72821;49.814;19.034;2023-09-18T13:54:48;4.55;;;4.07;;
22066;SDS011;72821;49.814;19.034;2023-09-18T13:59:53;4.82;;;4.20;;
22066;SDS011;72821;49.814;19.034;2023-09-18T14:04:55;6.95;;;6.22;;
22066;SDS011;72821;49.814;19.034;2023-09-18T14:09:58;4.47;;;3.92;;
22066;SDS011;72821;49.814;19.034;2023-09-18T14:15:00;5.53;;;4.22;;
22066;SDS011;72821;49.814;19.034;2023-09-18T14:20:03;8.50;;;4.72;;
22066;SDS011;72821;49.814;19.034;2023-09-18T14:25:08;5.20;;;4.38;;
22066;SDS011;72821;49.814;19.034;2023-09-18T14:30:14;6.45;;;4.43;;
22066;SDS011;72821;49.814;19.034;2023-09-18T14:35:18;7.38;;;5.18;;
22066;SDS011;72821;49.814;19.034;2023-09-18T14:40:21;5.90;;;4.38;;
22066;SDS011;72821;49.814;19.034;2023-09-18T14:45:24;6.38;;;4.57;;
22066;SDS011;72821;49.814;19.034;2023-09-18T14:50:26;5.55;;;4.60;;
22066;SDS011;72821;49.814;19.034;2023-09-18T14:55:29;7.80;;;5.05;;
22066;SDS011;72821;49.814;19.034;2023-09-18T15:00:31;5.82;;;4.85;;
22066;SDS011;72821;49.814;19.034;2023-09-18T15:05:35;6.13;;;4.72;;
22066;SDS011;72821;49.814;19.034;2023-09-18T15:10:37;7.47;;;5.45;;
22066;SDS011;72821;49.814;19.034;2023-09-18T15:15:40;6.10;;;4.47;;
22066;SDS011;72821;49.814;19.034;2023-09-18T15:20:43;6.15;;;5.53;;
22066;SDS011;72821;49.814;19.034;2023-09-18T15:25:45;7.25;;;5.18;;
22066;SDS011;72821;49.814;19.034;2023-09-18T15:30:49;7.20;;;5.30;;
22066;SDS011;72821;49.814;19.034;2023-09-18T15:35:53;8.60;;;6.13;;
22066;SDS011;72821;49.814;19.034;2023-09-18T15:40:55;6.88;;;5.68;;
22066;SDS011;72821;49.814;19.034;2023-09-18T15:45:58;6.80;;;5.00;;
22066;SDS011;72821;49.814;19.034;2023-09-18T15:51:00;7.43;;;5.43;;
22066;SDS011;72821;49.814;19.034;2023-09-18T15:56:03;7.70;;;5.22;;
22066;SDS011;72821;49.814;19.034;2023-09-18T16:01:05;8.25;;;5.40;;
22066;SDS011;72821;49.814;19.034;2023-09-18T16:06:16;6.82;;;5.57;;
22066;SDS011;72821;49.814;19.034;2023-09-18T16:11:20;6.68;;;5.22;;
22066;SDS011;72821;49.814;19.034;2023-09-18T16:16:22;5.65;;;4.82;;
22066;SDS011;72821;49.814;19.034;2023-09-18T16:21:24;6.38;;;5.05;;
22066;SDS011;72821;49.814;19.034;2023-09-18T16:26:27;7.63;;;5.13;;
22066;SDS011;72821;49.814;19.034;2023-09-18T16:31:30;6.20;;;5.20;;
22066;SDS011;72821;49.814;19.034;2023-09-18T16:36:32;7.82;;;5.07;;
22066;SDS011;72821;49.814;19.034;2023-09-18T16:41:35;8.32;;;5.80;;
22066;SDS011;72821;49.814;19.034;2023-09-18T16:46:37;7.70;;;5.90;;
22066;SDS011;72821;49.814;19.034;2023-09-18T16:51:40;8.07;;;6.32;;
22066;SDS011;72821;49.814;19.034;2023-09-18T16:56:43;7.82;;;6.03;;
22066;SDS011;72821;49.814;19.034;2023-09-18T17:01:47;8.02;;;6.22;;
22066;SDS011;72821;49.814;19.034;2023-09-18T17:06:50;9.75;;;6.55;;
22066;SDS011;72821;49.814;19.034;2023-09-18T17:11:52;10.00;;;7.20;;
22066;SDS011;72821;49.814;19.034;2023-09-18T17:16:54;8.82;;;6.82;;
22066;SDS011;72821;49.814;19.034;2023-09-18T17:21:57;9.02;;;6.80;;
22066;SDS011;72821;49.814;19.034;2023-09-18T17:27:02;10.45;;;6.85;;
22066;SDS011;72821;49.814;19.034;2023-09-18T17:32:07;9.38;;;6.97;;
22066;SDS011;72821;49.814;19.034;2023-09-18T17:37:09;9.77;;;7.28;;
22066;SDS011;72821;49.814;19.034;2023-09-18T17:42:11;12.65;;;7.20;;
22066;SDS011;72821;49.814;19.034;2023-09-18T17:47:18;9.07;;;6.55;;
22066;SDS011;72821;49.814;19.034;2023-09-18T17:52:23;10.82;;;7.32;;
22066;SDS011;72821;49.814;19.034;2023-09-18T17:57:26;9.00;;;7.25;;
22066;SDS011;72821;49.814;19.034;2023-09-18T18:02:28;9.30;;;7.00;;
22066;SDS011;72821;49.814;19.034;2023-09-18T18:07:31;12.13;;;7.05;;
22066;SDS011;72821;49.814;19.034;2023-09-18T18:12:34;10.07;;;7.47;;
22066;SDS011;72821;49.814;19.034;2023-09-18T18:17:37;10.63;;;7.10;;
22066;SDS011;72821;49.814;19.034;2023-09-18T18:22:39;9.70;;;6.88;;
22066;SDS011;72821;49.814;19.034;2023-09-18T18:27:48;9.95;;;7.35;;
22066;SDS011;72821;49.814;19.034;2023-09-18T18:33:29;10.23;;;7.20;;
22066;SDS011;72821;49.814;19.034;2023-09-18T18:38:32;9.93;;;7.10;;
22066;SDS011;72821;49.814;19.034;2023-09-18T18:43:42;9.00;;;7.00;;
22066;SDS011;72821;49.814;19.034;2023-09-18T18:48:44;10.65;;;7.05;;
22066;SDS011;72821;49.814;19.034;2023-09-18T18:53:48;10.70;;;7.45;;
22066;SDS011;72821;49.814;19.034;2023-09-18T18:58:51;10.63;;;7.38;;
22066;SDS011;72821;49.814;19.034;2023-09-18T19:03:54;10.20;;;7.93;;
22066;SDS011;72821;49.814;19.034;2023-09-18T19:08:57;11.50;;;7.38;;
22066;SDS011;72821;49.814;19.034;2023-09-18T19:14:03;9.27;;;6.47;;
22066;SDS011;72821;49.814;19.034;2023-09-18T19:19:06;9.25;;;6.95;;
22066;SDS011;72821;49.814;19.034;2023-09-18T19:24:08;10.00;;;7.18;;
22066;SDS011;72821;49.814;19.034;2023-09-18T19:29:12;8.32;;;6.53;;
22066;SDS011;72821;49.814;19.034;2023-09-18T19:34:16;9.90;;;6.82;;
22066;SDS011;72821;49.814;19.034;2023-09-18T19:39:19;13.07;;;7.50;;
22066;SDS011;72821;49.814;19.034;2023-09-18T19:44:23;8.65;;;6.70;;
22066;SDS011;72821;49.814;19.034;2023-09-18T19:49:26;9.13;;;6.63;;
22066;SDS011;72821;49.814;19.034;2023-09-18T19:54:29;8.77;;;6.72;;
22066;SDS011;72821;49.814;19.034;2023-09-18T19:59:32;11.55;;;7.35;;
22066;SDS011;72821;49.814;19.034;2023-09-18T20:04:35;9.88;;;7.30;;
22066;SDS011;72821;49.814;19.034;2023-09-18T20:09:37;11.00;;;7.25;;
22066;SDS011;72821;49.814;19.034;2023-09-18T20:14:39;8.55;;;6.82;;
22066;SDS011;72821;49.814;19.034;2023-09-18T20:19:43;9.18;;;6.55;;
22066;SDS011;72821;49.814;19.034;2023-09-18T20:24:47;9.27;;;7.43;;
22066;SDS011;72821;49.814;19.034;2023-09-18T20:29:49;9.10;;;7.07;;
22066;SDS011;72821;49.814;19.034;2023-09-18T20:34:52;9.18;;;6.40;;
22066;SDS011;72821;49.814;19.034;2023-09-18T20:39:54;8.95;;;7.38;;
22066;SDS011;72821;49.814;19.034;2023-09-18T20:44:56;9.32;;;7.28;;
22066;SDS011;72821;49.814;19.034;2023-09-18T20:50:00;9.25;;;7.18;;
22066;SDS011;72821;49.814;19.034;2023-09-18T20:55:04;11.02;;;6.93;;
22066;SDS011;72821;49.814;19.034;2023-09-18T21:00:07;9.50;;;6.75;;
22066;SDS011;72821;49.814;19.034;2023-09-18T21:05:12;10.85;;;6.82;;
22066;SDS011;72821;49.814;19.034;2023-09-18T21:10:15;12.15;;;9.35;;
22066;SDS011;72821;49.814;19.034;2023-09-18T21:15:17;12.27;;;7.43;;
22066;SDS011;72821;49.814;19.034;2023-09-18T21:20:20;9.85;;;7.30;;
22066;SDS011;72821;49.814;19.034;2023-09-18T21:25:22;9.25;;;6.68;;
22066;SDS011;72821;49.814;19.034;2023-09-18T21:30:25;9.02;;;6.97;;
22066;SDS011;72821;49.814;19.034;2023-09-18T21:35:31;10.45;;;7.25;;
22066;SDS011;72821;49.814;19.034;2023-09-18T21:40:33;10.23;;;6.63;;
22066;SDS011;72821;49.814;19.034;2023-09-18T21:45:36;8.65;;;6.15;;
22066;SDS011;72821;49.814;19.034;2023-09-18T21:50:38;9.27;;;6.60;;
22066;SDS011;72821;49.814;19.034;2023-09-18T21:55:44;8.70;;;6.57;;
22066;SDS011;72821;49.814;19.034;2023-09-18T22:05:58;9.63;;;6.90;;
22066;SDS011;72821;49.814;19.034;2023-09-18T22:11:01;8.98;;;6.85;;
22066;SDS011;72821;49.814;19.034;2023-09-18T22:16:08;9.30;;;6.93;;
22066;SDS011;72821;49.814;19.034;2023-09-18T22:21:10;8.02;;;6.40;;
22066;SDS011;72821;49.814;19.034;2023-09-18T22:26:13;7.93;;;6.15;;
22066;SDS011;72821;49.814;19.034;2023-09-18T22:31:15;8.30;;;6.53;;
22066;SDS011;72821;49.814;19.034;2023-09-18T22:36:20;9.43;;;6.78;;
22066;SDS011;72821;49.814;19.034;2023-09-18T22:57:50;9.85;;;6.57;;
22066;SDS011;72821;49.814;19.034;2023-09-18T23:03:00;9.23;;;6.70;;
22066;SDS011;72821;49.814;19.034;2023-09-18T23:08:06;9.02;;;6.13;;
22066;SDS011;72821;49.814;19.034;2023-09-18T23:13:09;10.60;;;6.47;;
22066;SDS011;72821;49.814;19.034;2023-09-18T23:18:12;8.90;;;6.28;;
22066;SDS011;72821;49.814;19.034;2023-09-18T23:23:18;7.72;;;6.05;;
22066;SDS011;72821;49.814;19.034;2023-09-18T23:28:20;10.75;;;6.97;;
22066;SDS011;72821;49.814;19.034;2023-09-18T23:33:24;7.95;;;5.75;;
22066;SDS011;72821;49.814;19.034;2023-09-18T23:38:29;8.07;;;5.53;;
22066;SDS011;72821;49.814;19.034;2023-09-18T23:43:33;7.82;;;5.75;;
22066;SDS011;72821;49.814;19.034;2023-09-18T23:48:38;9.55;;;5.80;;
22066;SDS011;72821;49.814;19.034;2023-09-18T23:53:43;9.82;;;6.07;;
22066;SDS011;72821;49.814;19.034;2023-09-18T23:58:46;9.02;;;6.15;;
